Time;durP1;ratioP1;P1;durP2;ratioP2;P2;SDS_P1;SDS_P2;PMS_P1;PMS_P2;Temp;Humidity;BMP_temperature;BMP_pressure;BME280_temperature;BME280_humidity;BME280_pressure;Samples;Min_cycle;Max_cycle;Signal;HPM_P1;HPM_P2
2022/02/13 00:00:27;;;;;;;8.53;5.00;;;;;;;4.48;56.03;101514.66;5061618;28;20535;-66
2022/02/13 00:02:53;;;;;;;5.93;4.90;;;;;;;4.67;55.20;101502.63;5061850;28;20173;-66
2022/02/13 00:05:18;;;;;;;6.23;4.30;;;;;;;4.62;56.40;101504.97;5061304;28;20412;-66
2022/02/13 00:07:44;;;;;;;6.90;4.40;;;;;;;4.59;55.62;101511.69;5061430;28;20244;-69
2022/02/13 00:10:12;;;;;;;6.63;4.40;;;;;;;4.51;55.92;101498.44;5061917;28;20178;-67
2022/02/13 00:12:38;;;;;;;5.07;4.67;;;;;;;4.54;56.18;101499.44;5061689;28;20193;-70
2022/02/13 00:15:04;;;;;;;5.87;5.30;;;;;;;4.04;57.28;101506.56;5061367;28;20500;-67
2022/02/13 00:17:30;;;;;;;5.47;4.03;;;;;;;4.35;56.47;101494.25;5061497;28;20389;-69
2022/02/13 00:19:55;;;;;;;5.73;4.57;;;;;;;4.77;55.70;101493.59;5061368;28;20408;-68
2022/02/13 00:22:21;;;;;;;7.80;5.00;;;;;;;4.83;55.81;101486.09;5060958;28;20597;-68
2022/02/13 00:24:46;;;;;;;4.93;4.30;;;;;;;4.64;55.78;101482.69;5061182;28;20185;-68
2022/02/13 00:27:12;;;;;;;4.50;4.10;;;;;;;4.52;55.25;101492.47;5060877;28;20173;-67
2022/02/13 00:29:37;;;;;;;6.13;4.77;;;;;;;4.48;55.68;101482.78;5060788;28;20182;-68
2022/02/13 00:32:06;;;;;;;6.93;5.13;;;;;;;4.81;56.35;101480.00;5061352;28;20168;-68
2022/02/13 00:34:32;;;;;;;5.80;5.00;;;;;;;4.82;55.41;101481.75;5060317;28;20185;-66
2022/02/13 00:36:58;;;;;;;5.53;4.83;;;;;;;4.72;55.79;101486.50;5060114;28;20731;-68
2022/02/13 00:39:23;;;;;;;5.73;4.80;;;;;;;4.79;56.72;101474.75;5061347;28;20169;-66
2022/02/13 00:41:49;;;;;;;7.23;4.87;;;;;;;4.76;54.97;101473.72;5060676;28;20799;-66
2022/02/13 00:44:14;;;;;;;7.57;5.10;;;;;;;4.77;55.31;101475.50;5060578;28;20260;-67
2022/02/13 00:46:39;;;;;;;6.13;5.40;;;;;;;4.80;56.13;101466.16;5061029;28;20169;-67
2022/02/13 00:49:04;;;;;;;8.60;5.50;;;;;;;4.81;54.97;101470.53;5060580;28;20181;-65
2022/02/13 00:51:30;;;;;;;5.83;4.93;;;;;;;4.42;55.91;101464.44;5060482;28;20221;-66
2022/02/13 00:53:55;;;;;;;5.57;4.97;;;;;;;4.58;56.12;101464.31;5059674;28;20378;-66
2022/02/13 00:56:21;;;;;;;6.43;5.00;;;;;;;4.77;56.38;101455.72;5060420;28;20303;-68
2022/02/13 00:58:46;;;;;;;6.93;5.00;;;;;;;4.54;55.45;101462.41;5060285;28;20188;-65
2022/02/13 01:01:12;;;;;;;9.50;5.40;;;;;;;4.60;55.57;101462.72;5060889;28;20503;-66
2022/02/13 01:03:37;;;;;;;6.57;5.20;;;;;;;4.42;56.79;101456.69;5060110;28;20178;-65
2022/02/13 01:06:03;;;;;;;5.30;4.80;;;;;;;4.72;55.57;101450.34;5060108;28;20256;-66
2022/02/13 01:08:28;;;;;;;7.17;5.30;;;;;;;4.63;55.79;101452.50;5060699;28;20173;-66
2022/02/13 01:10:53;;;;;;;5.73;5.07;;;;;;;4.66;55.21;101450.06;5060176;28;20426;-65
2022/02/13 01:13:19;;;;;;;9.53;5.73;;;;;;;4.72;56.02;101442.59;5060087;28;20212;-66
2022/02/13 01:15:45;;;;;;;5.67;4.77;;;;;;;4.62;56.02;101431.78;5060404;28;20170;-67
2022/02/13 01:18:11;;;;;;;6.20;4.87;;;;;;;4.40;56.73;101448.88;5059464;28;20174;-67
2022/02/13 01:20:36;;;;;;;6.47;5.57;;;;;;;4.27;56.91;101443.97;5059847;28;20197;-66
2022/02/13 01:23:02;;;;;;;6.07;5.43;;;;;;;4.20;56.08;101446.25;5060421;28;20412;-66
2022/02/13 01:25:27;;;;;;;5.40;4.90;;;;;;;4.00;57.93;101436.69;5058972;28;20177;-67
2022/02/13 01:27:52;;;;;;;5.60;5.00;;;;;;;4.08;57.35;101434.47;5060205;28;20189;-68
2022/02/13 01:30:18;;;;;;;6.53;5.10;;;;;;;4.21;57.95;101429.94;5060371;28;20170;-67
2022/02/13 01:32:43;;;;;;;7.97;5.37;;;;;;;3.99;58.00;101432.31;5059567;28;20445;-67
2022/02/13 01:35:09;;;;;;;6.80;4.73;;;;;;;4.08;57.87;101419.88;5059596;28;20227;-67
2022/02/13 01:37:35;;;;;;;9.60;5.33;;;;;;;4.02;57.87;101412.72;5059610;28;20165;-67
2022/02/13 01:40:01;;;;;;;6.80;5.10;;;;;;;4.21;56.33;101411.00;5059528;28;20676;-67
2022/02/13 01:42:27;;;;;;;8.30;5.37;;;;;;;4.35;57.50;101407.34;5059601;28;20425;-68
2022/02/13 01:44:53;;;;;;;6.07;5.47;;;;;;;4.13;57.48;101405.50;5060053;28;20400;-67
2022/02/13 01:47:18;;;;;;;6.83;5.03;;;;;;;4.04;58.04;101405.91;5059582;28;20166;-67
2022/02/13 01:49:44;;;;;;;9.13;5.83;;;;;;;4.41;58.37;101393.88;5058747;28;20887;-66
2022/02/13 01:52:09;;;;;;;7.30;5.73;;;;;;;4.46;56.50;101401.81;5059809;28;20180;-66
2022/02/13 01:54:34;;;;;;;9.33;5.63;;;;;;;4.75;56.32;101404.78;5059185;28;20253;-66
2022/02/13 01:57:01;;;;;;;8.03;5.53;;;;;;;4.19;56.97;101408.38;5059215;28;20264;-66
2022/02/13 01:59:27;;;;;;;5.93;5.27;;;;;;;4.17;58.15;101403.94;5059662;28;20170;-66
2022/02/13 02:01:52;;;;;;;8.37;5.90;;;;;;;4.10;58.69;101400.19;5059271;28;20886;-67
2022/02/13 02:04:17;;;;;;;6.20;5.50;;;;;;;4.37;57.85;101390.25;5059070;28;20558;-66
2022/02/13 02:06:43;;;;;;;6.63;5.40;;;;;;;3.96;58.19;101384.03;5058711;28;20161;-67
2022/02/13 02:09:08;;;;;;;9.33;7.00;;;;;;;3.97;58.73;101382.38;5062180;28;20430;-67
2022/02/13 02:11:33;;;;;;;5.50;5.00;;;;;;;3.93;59.90;101380.47;5060106;28;20276;-66
2022/02/13 02:13:59;;;;;;;7.90;5.40;;;;;;;3.99;59.72;101373.91;5059203;28;20221;-66
2022/02/13 02:16:24;;;;;;;6.70;5.50;;;;;;;4.01;59.55;101381.69;5058884;28;20170;-66
2022/02/13 02:18:49;;;;;;;7.33;5.60;;;;;;;3.77;58.56;101386.56;5059291;28;20170;-66
2022/02/13 02:21:15;;;;;;;8.70;6.57;;;;;;;4.02;57.54;101379.19;5060662;28;20185;-66
2022/02/13 02:23:40;;;;;;;5.80;5.17;;;;;;;3.99;58.49;101368.72;5060288;28;20535;-66
2022/02/13 02:26:07;;;;;;;7.93;5.60;;;;;;;4.07;58.37;101350.13;5058772;28;20177;-66
2022/02/13 02:28:32;;;;;;;6.57;5.87;;;;;;;4.01;58.61;101354.19;5058967;28;20457;-66
2022/02/13 02:30:58;;;;;;;7.97;6.10;;;;;;;4.04;58.09;101346.59;5057736;28;20431;-66
2022/02/13 02:33:23;;;;;;;6.33;5.73;;;;;;;4.17;57.89;101352.34;5058498;28;20279;-67
2022/02/13 02:35:49;;;;;;;9.10;6.37;;;;;;;4.33;59.10;101343.56;5059129;28;20190;-66
2022/02/13 02:38:14;;;;;;;8.03;5.93;;;;;;;4.26;57.42;101344.09;5058478;28;20197;-66
2022/02/13 02:40:41;;;;;;;9.97;6.90;;;;;;;3.91;59.32;101336.53;5058579;28;20170;-66
2022/02/13 02:43:06;;;;;;;6.27;5.43;;;;;;;3.98;58.90;101338.59;5059272;28;20182;-66
2022/02/13 02:45:31;;;;;;;7.23;5.67;;;;;;;4.08;57.78;101326.97;5059204;28;20416;-66
2022/02/13 02:47:57;;;;;;;8.63;5.60;;;;;;;3.95;57.98;101324.66;5058930;28;20256;-66
2022/02/13 02:50:22;;;;;;;6.03;5.43;;;;;;;4.07;58.82;101319.16;5058529;28;20304;-66
2022/02/13 02:52:47;;;;;;;7.63;5.50;;;;;;;3.70;57.81;101321.81;5058228;28;20212;-67
2022/02/13 02:55:12;;;;;;;6.53;5.87;;;;;;;4.15;58.28;101312.66;5058231;28;20173;-65
2022/02/13 02:57:38;;;;;;;9.63;6.70;;;;;;;3.92;57.94;101311.63;5058330;28;20253;-66
2022/02/13 03:00:06;;;;;;;6.77;5.30;;;;;;;3.95;59.30;101302.34;5058114;28;20193;-66
2022/02/13 03:02:32;;;;;;;5.53;4.90;;;;;;;3.90;57.54;101305.47;5058414;28;20252;-65
2022/02/13 03:04:57;;;;;;;6.83;5.47;;;;;;;3.79;57.67;101303.31;5058047;28;20520;-65
2022/02/13 03:07:22;;;;;;;9.73;4.97;;;;;;;3.85;57.71;101292.41;5058224;28;20513;-66
2022/02/13 03:09:48;;;;;;;8.17;5.47;;;;;;;4.34;58.07;101284.28;5058433;28;20170;-67
2022/02/13 03:12:13;;;;;;;8.97;5.50;;;;;;;4.08;57.63;101284.81;5058441;28;20169;-68
2022/02/13 03:14:38;;;;;;;6.27;5.50;;;;;;;4.18;57.35;101276.66;5058609;28;20177;-66
2022/02/13 03:17:06;;;;;;;6.73;5.67;;;;;;;4.12;57.39;101272.13;5057914;28;20546;-66
2022/02/13 03:19:35;;;;;;;8.60;5.77;;;;;;;3.96;58.68;101267.97;5058355;28;20165;-65
2022/02/13 03:22:01;;;;;;;7.87;5.90;;;;;;;4.04;56.60;101251.13;5057959;28;20444;-65
2022/02/13 03:24:26;;;;;;;6.93;5.03;;;;;;;3.98;56.42;101250.88;5058302;28;20491;-65
2022/02/13 03:26:51;;;;;;;6.73;5.10;;;;;;;3.88;57.48;101247.00;5057828;28;20166;-66
2022/02/13 03:29:17;;;;;;;6.20;5.43;;;;;;;4.10;57.75;101245.38;5057965;28;20177;-65
2022/02/13 03:31:42;;;;;;;5.97;5.20;;;;;;;4.24;57.26;101242.53;5058446;28;20426;-66
2022/02/13 03:34:08;;;;;;;7.37;4.80;;;;;;;3.88;57.53;101241.84;5057758;28;20209;-66
2022/02/13 03:36:33;;;;;;;7.13;5.93;;;;;;;3.94;57.07;101233.50;5056967;28;20408;-66
2022/02/13 03:38:59;;;;;;;7.03;5.50;;;;;;;3.89;56.58;101224.66;5058105;28;20165;-66
2022/02/13 03:41:24;;;;;;;5.53;4.93;;;;;;;4.04;56.84;101233.06;5057855;28;20434;-66
2022/02/13 03:43:50;;;;;;;6.67;5.90;;;;;;;4.20;56.18;101226.00;5057687;28;20188;-66
2022/02/13 03:46:15;;;;;;;6.50;5.90;;;;;;;4.01;56.25;101234.66;5058268;28;20554;-66
2022/02/13 03:48:40;;;;;;;8.53;5.97;;;;;;;4.16;55.58;101231.84;5057692;28;20166;-64
2022/02/13 03:51:06;;;;;;;7.87;6.60;;;;;;;4.37;55.96;101227.63;5057507;28;20251;-66
2022/02/13 03:53:31;;;;;;;8.43;5.90;;;;;;;3.79;55.39;101230.19;5056906;28;20473;-66
2022/02/13 03:55:56;;;;;;;7.73;5.93;;;;;;;3.77;55.63;101232.72;5057635;28;20443;-66
2022/02/13 03:58:21;;;;;;;6.23;5.20;;;;;;;4.07;55.67;101219.41;5057752;28;20177;-65
2022/02/13 04:00:47;;;;;;;6.20;5.20;;;;;;;3.98;57.30;101226.78;5057913;28;20174;-66
2022/02/13 04:03:12;;;;;;;8.50;5.80;;;;;;;4.10;56.80;101231.56;5057477;28;20165;-66
2022/02/13 04:05:37;;;;;;;7.00;6.00;;;;;;;4.01;55.67;101230.34;5057606;28;20535;-65
2022/02/13 04:08:03;;;;;;;8.13;6.30;;;;;;;4.06;54.89;101230.56;5057749;28;20456;-65
2022/02/13 04:10:28;;;;;;;6.90;5.17;;;;;;;4.16;55.99;101226.69;5057531;28;20181;-66
2022/02/13 04:12:54;;;;;;;7.77;6.00;;;;;;;3.68;55.67;101225.47;5057372;28;20201;-66
2022/02/13 04:15:19;;;;;;;6.60;5.90;;;;;;;4.05;57.12;101233.97;5056936;28;20196;-66
2022/02/13 04:17:44;;;;;;;8.07;6.30;;;;;;;4.16;54.76;101242.19;5057361;28;20215;-66
2022/02/13 04:20:10;;;;;;;7.47;6.30;;;;;;;4.16;55.52;101242.19;5057530;28;20535;-65
2022/02/13 04:22:36;;;;;;;7.10;6.20;;;;;;;4.20;55.82;101233.75;5057937;28;20532;-66
2022/02/13 04:25:01;;;;;;;7.10;6.40;;;;;;;4.26;55.19;101222.81;5057125;28;20248;-66
2022/02/13 04:27:27;;;;;;;8.47;6.33;;;;;;;4.04;56.18;101227.91;5056644;28;20220;-67
2022/02/13 04:29:52;;;;;;;7.73;6.07;;;;;;;3.89;56.36;101211.75;5061482;28;20176;-66
2022/02/13 04:32:17;;;;;;;7.37;5.97;;;;;;;4.20;55.32;101213.09;5060794;28;20173;-68
2022/02/13 04:34:45;;;;;;;8.47;6.60;;;;;;;3.93;56.67;101210.22;5060835;28;20200;-66
2022/02/13 04:37:11;;;;;;;8.10;6.40;;;;;;;4.11;55.69;101217.88;5061280;28;20174;-66
2022/02/13 04:39:36;;;;;;;9.27;7.20;;;;;;;4.00;56.81;101209.66;5060875;28;20426;-66
2022/02/13 04:42:02;;;;;;;7.03;6.33;;;;;;;4.11;55.73;101217.88;5060816;28;20185;-66
2022/02/13 04:44:27;;;;;;;6.80;6.07;;;;;;;4.14;56.14;101215.41;5061446;28;20520;-66
2022/02/13 04:46:52;;;;;;;9.47;6.90;;;;;;;3.78;56.47;101213.00;5061347;28;20177;-66
2022/02/13 04:49:18;;;;;;;9.77;6.30;;;;;;;4.05;55.56;101203.00;5061361;28;20169;-66
2022/02/13 04:51:43;;;;;;;8.03;5.70;;;;;;;3.28;57.15;101205.56;5060539;28;20486;-65
2022/02/13 04:54:08;;;;;;;6.57;5.60;;;;;;;4.03;57.29;101195.19;5060196;28;20205;-66
2022/02/13 04:56:34;;;;;;;8.57;6.60;;;;;;;3.73;56.70;101196.41;5060813;28;20597;-66
2022/02/13 04:58:59;;;;;;;11.83;6.90;;;;;;;3.97;55.42;101194.06;5060485;28;20166;-67
2022/02/13 05:01:24;;;;;;;9.10;6.43;;;;;;;3.63;57.38;101193.44;5060251;28;20188;-66
2022/02/13 05:03:50;;;;;;;7.60;6.10;;;;;;;3.80;56.28;101181.31;5060746;28;20170;-66
2022/02/13 05:06:15;;;;;;;9.43;6.60;;;;;;;4.05;55.80;101187.53;5060331;28;20259;-67
2022/02/13 05:08:40;;;;;;;9.20;6.53;;;;;;;3.73;56.04;101178.38;5060255;28;20177;-67
2022/02/13 05:11:06;;;;;;;9.60;6.50;;;;;;;3.67;57.30;101176.41;5060828;28;20244;-66
2022/02/13 05:13:31;;;;;;;6.93;6.03;;;;;;;3.59;57.21;101170.91;5059877;28;20327;-68
2022/02/13 05:15:56;;;;;;;8.97;6.77;;;;;;;3.85;57.01;101174.63;5060125;28;20215;-66
2022/02/13 05:18:22;;;;;;;7.50;6.63;;;;;;;3.54;56.09;101177.53;5059667;28;20260;-66
2022/02/13 05:20:47;;;;;;;10.57;6.63;;;;;;;3.73;57.29;101168.06;5059854;28;20207;-66
2022/02/13 05:23:12;;;;;;;12.37;7.30;;;;;;;3.75;55.70;101171.56;5060062;28;20458;-67
2022/02/13 05:25:38;;;;;;;9.93;6.27;;;;;;;3.72;56.82;101169.72;5061086;28;20176;-67
2022/02/13 05:28:03;;;;;;;7.57;6.63;;;;;;;3.57;56.81;101175.09;5059816;28;20572;-67
2022/02/13 05:30:29;;;;;;;8.90;6.50;;;;;;;3.64;56.56;101164.25;5059830;28;20165;-66
2022/02/13 05:32:54;;;;;;;7.50;6.10;;;;;;;3.94;56.08;101153.53;5060253;28;20193;-67
2022/02/13 05:35:19;;;;;;;7.90;6.40;;;;;;;3.75;56.24;101148.38;5058847;28;20216;-65
2022/02/13 05:37:47;;;;;;;9.77;6.77;;;;;;;3.56;55.99;101156.97;5059926;28;20433;-66
2022/02/13 05:40:13;;;;;;;8.57;6.13;;;;;;;3.56;56.70;101160.47;5059633;28;20193;-66
2022/02/13 05:42:38;;;;;;;7.53;6.63;;;;;;;3.33;56.76;101162.00;5059573;28;20812;-66
2022/02/13 05:45:04;;;;;;;10.10;6.40;;;;;;;3.56;55.94;101159.56;5059431;28;20428;-65
2022/02/13 05:47:29;;;;;;;8.90;6.80;;;;;;;3.47;56.77;101160.91;5059135;28;20415;-66
2022/02/13 05:49:55;;;;;;;8.90;6.20;;;;;;;3.87;55.28;101167.84;5059271;28;20169;-65
2022/02/13 05:52:20;;;;;;;8.93;6.53;;;;;;;3.54;55.23;101159.50;5059315;28;20176;-65
2022/02/13 05:54:46;;;;;;;7.17;6.30;;;;;;;3.94;57.02;101161.25;5059660;28;20461;-66
2022/02/13 05:57:11;;;;;;;8.30;6.60;;;;;;;4.08;55.25;101142.91;5059192;28;20412;-66
2022/02/13 05:59:37;;;;;;;7.17;6.20;;;;;;;3.66;55.32;101141.13;5059255;28;20208;-67
2022/02/13 06:02:03;;;;;;;8.33;6.57;;;;;;;3.89;56.20;101139.53;5059704;28;20161;-65
2022/02/13 06:04:28;;;;;;;9.40;6.00;;;;;;;3.52;56.42;101135.34;5058964;28;20176;-65
2022/02/13 06:06:54;;;;;;;10.30;6.80;;;;;;;3.76;55.43;101138.13;5059086;28;20696;-65
2022/02/13 06:09:20;;;;;;;9.90;6.70;;;;;;;3.69;56.77;101142.16;5060207;28;20169;-66
2022/02/13 06:11:46;;;;;;;7.73;6.00;;;;;;;3.54;55.25;101141.44;5059539;28;20450;-65
2022/02/13 06:14:11;;;;;;;12.90;7.07;;;;;;;3.86;54.31;101137.72;5059155;28;20853;-64
2022/02/13 06:16:37;;;;;;;9.70;6.20;;;;;;;3.67;54.89;101143.75;5059282;28;20384;-65
2022/02/13 06:19:03;;;;;;;9.20;6.70;;;;;;;3.66;54.82;101142.00;5059091;28;20180;-67
2022/02/13 06:21:28;;;;;;;8.83;6.20;;;;;;;4.10;53.68;101138.69;5058023;28;20193;-67
2022/02/13 06:23:53;;;;;;;9.87;6.60;;;;;;;3.89;54.18;101129.22;5059323;28;20223;-65
2022/02/13 06:26:18;;;;;;;9.13;6.87;;;;;;;4.15;53.44;101135.47;5058613;28;20170;-65
2022/02/13 06:28:44;;;;;;;9.90;6.40;;;;;;;3.86;54.31;101136.84;5058531;28;20193;-65
2022/02/13 06:31:10;;;;;;;8.00;6.30;;;;;;;4.18;55.10;101138.22;5059153;28;20213;-66
2022/02/13 06:33:35;;;;;;;7.87;6.30;;;;;;;3.69;54.62;101138.66;5058397;28;20223;-66
2022/02/13 06:36:01;;;;;;;8.90;6.53;;;;;;;3.93;54.57;101133.69;5058449;28;20412;-66
2022/02/13 06:38:26;;;;;;;6.83;6.13;;;;;;;3.91;54.45;101137.94;5058776;28;20442;-66
2022/02/13 06:40:51;;;;;;;7.43;5.70;;;;;;;3.77;55.62;101136.44;5058441;28;20166;-65
2022/02/13 06:43:17;;;;;;;9.13;6.10;;;;;;;3.73;54.86;101132.81;5058284;28;20180;-65
2022/02/13 06:45:42;;;;;;;10.23;6.30;;;;;;;3.89;54.53;101136.97;5058907;28;20173;-65
2022/02/13 06:48:08;;;;;;;7.77;6.30;;;;;;;3.80;54.58;101126.25;5058424;28;20197;-66
2022/02/13 06:50:34;;;;;;;7.20;6.50;;;;;;;3.80;55.34;101133.97;5057713;28;20304;-66
2022/02/13 06:52:59;;;;;;;7.53;6.20;;;;;;;3.95;54.30;101139.81;5058673;28;20586;-67
2022/02/13 06:55:24;;;;;;;9.27;6.30;;;;;;;4.00;54.88;101127.97;5057429;28;20247;-66
2022/02/13 06:57:50;;;;;;;7.17;6.10;;;;;;;3.60;54.13;101131.41;5058372;28;20527;-66
2022/02/13 07:00:16;;;;;;;7.70;5.83;;;;;;;4.04;53.93;101135.03;5058171;28;20180;-66
2022/02/13 07:02:42;;;;;;;8.67;6.23;;;;;;;4.20;53.60;101115.03;5058451;28;20456;-66
2022/02/13 07:05:08;;;;;;;9.63;5.90;;;;;;;3.99;53.62;101125.31;5059733;28;20415;-66
2022/02/13 07:07:34;;;;;;;10.27;6.10;;;;;;;3.75;53.32;101128.63;5058892;28;20538;-66
2022/02/13 07:10:00;;;;;;;8.73;6.10;;;;;;;3.82;53.63;101116.88;5058535;28;20416;-66
2022/02/13 07:12:25;;;;;;;8.67;6.90;;;;;;;3.90;53.66;101119.78;5057292;28;20503;-65
2022/02/13 07:14:50;;;;;;;8.70;6.60;;;;;;;4.35;52.46;101118.25;5058931;28;20542;-66
2022/02/13 07:17:15;;;;;;;7.30;5.67;;;;;;;3.75;54.65;101126.06;5058252;28;20170;-67
2022/02/13 07:19:41;;;;;;;7.30;6.50;;;;;;;4.12;53.13;101126.75;5057934;28;20201;-66
2022/02/13 07:22:06;;;;;;;8.57;6.47;;;;;;;3.91;53.03;101126.69;5058318;28;20185;-67
2022/02/13 07:24:34;;;;;;;7.90;6.83;;;;;;;4.00;53.70;101122.81;5057984;28;20465;-67
2022/02/13 07:27:00;;;;;;;9.40;6.87;;;;;;;4.21;53.00;101103.91;5058110;28;20211;-67
2022/02/13 07:29:25;;;;;;;9.90;6.43;;;;;;;4.38;52.45;101107.16;5058446;28;20515;-67
2022/02/13 07:31:51;;;;;;;7.03;5.93;;;;;;;4.35;53.40;101094.16;5058032;28;20424;-66
2022/02/13 07:34:16;;;;;;;8.47;6.33;;;;;;;4.58;52.22;101096.78;5057782;28;20201;-66
2022/02/13 07:36:42;;;;;;;11.13;6.20;;;;;;;4.59;51.94;101095.94;5058403;28;20173;-66
2022/02/13 07:39:07;;;;;;;7.83;7.00;;;;;;;4.86;52.43;101089.28;5058302;28;20215;-66
2022/02/13 07:41:32;;;;;;;9.70;6.80;;;;;;;4.85;50.61;101090.09;5058213;28;20214;-66
2022/02/13 07:43:58;;;;;;;11.27;6.60;;;;;;;5.48;49.20;101080.31;5058302;28;20157;-66
2022/02/13 07:46:23;;;;;;;10.90;6.60;;;;;;;4.67;50.25;101079.94;5057150;28;20166;-66
2022/02/13 07:48:49;;;;;;;8.03;5.57;;;;;;;5.13;49.73;101082.50;5057108;28;20162;-68
2022/02/13 07:51:15;;;;;;;12.33;5.80;;;;;;;4.64;50.29;101084.09;5057608;28;20279;-66
2022/02/13 07:53:41;;;;;;;7.50;6.00;;;;;;;5.06;49.21;101076.25;5057422;28;20201;-66
2022/02/13 07:56:07;;;;;;;7.50;5.97;;;;;;;5.15;49.81;101075.69;5057922;28;20177;-66
2022/02/13 07:58:33;;;;;;;7.00;6.30;;;;;;;5.23;48.64;101080.31;5057689;28;20415;-66
2022/02/13 08:01:07;;;;;;;6.63;5.93;;;;;;;5.46;48.18;101087.16;5057767;28;20401;-66
2022/02/13 08:03:35;;;;;;;6.60;6.00;;;;;;;6.28;47.43;101075.34;5060745;28;20212;-69
2022/02/13 08:06:00;;;;;;;6.70;5.60;;;;;;;6.33;47.39;101076.38;5060688;28;20484;-68
2022/02/13 08:08:26;;;;;;;10.80;6.27;;;;;;;6.28;45.99;101075.34;5061468;28;20419;-68
2022/02/13 08:10:51;;;;;;;7.37;5.67;;;;;;;6.48;45.26;101075.09;5061200;28;20165;-68
2022/02/13 08:13:17;;;;;;;7.30;6.53;;;;;;;7.27;44.00;101072.28;5060912;28;20481;-67
2022/02/13 08:15:43;;;;;;;10.53;6.30;;;;;;;7.68;42.98;101073.41;5061583;28;20441;-68
2022/02/13 08:18:13;;;;;;;8.53;6.17;;;;;;;7.13;43.52;101079.63;5061064;28;20390;-68
2022/02/13 08:20:38;;;;;;;7.37;6.07;;;;;;;7.05;43.10;101063.88;5060996;28;20196;-70
2022/02/13 08:23:04;;;;;;;8.43;6.07;;;;;;;7.60;42.72;101067.13;5061444;28;20412;-69
2022/02/13 08:25:29;;;;;;;6.70;6.10;;;;;;;7.67;41.91;101062.97;5060937;28;20173;-69
2022/02/13 08:27:54;;;;;;;7.50;6.10;;;;;;;7.99;42.03;101061.22;5061078;28;20174;-69
2022/02/13 08:30:20;;;;;;;9.57;7.20;;;;;;;8.99;39.59;101049.69;5060365;28;20162;-69
2022/02/13 08:32:46;;;;;;;7.97;6.00;;;;;;;9.52;37.80;101049.00;5060664;28;20190;-69
2022/02/13 08:35:11;;;;;;;8.10;6.30;;;;;;;10.42;36.56;101046.25;5060684;28;20172;-69
2022/02/13 08:37:36;;;;;;;6.80;6.10;;;;;;;10.23;36.89;101034.63;5061223;28;20260;-69
2022/02/13 08:40:02;;;;;;;6.80;6.10;;;;;;;10.70;35.69;101036.22;5060727;28;20265;-70
2022/02/13 08:42:28;;;;;;;7.73;6.10;;;;;;;11.51;35.46;101024.13;5060548;28;20178;-70
2022/02/13 08:44:53;;;;;;;7.30;6.60;;;;;;;11.45;35.00;101014.50;5060938;28;20419;-70
2022/02/13 08:47:18;;;;;;;6.60;5.90;;;;;;;9.67;35.64;101026.72;5060588;28;20177;-68
2022/02/13 08:49:44;;;;;;;6.30;5.70;;;;;;;10.31;35.84;101010.41;5060920;28;20227;-69
2022/02/13 08:52:10;;;;;;;7.60;5.80;;;;;;;11.48;33.58;100995.38;5061473;28;20162;-69
2022/02/13 08:54:36;;;;;;;8.80;6.43;;;;;;;11.17;34.36;100988.09;5061318;28;20444;-68
2022/02/13 08:57:01;;;;;;;7.40;5.90;;;;;;;11.58;33.93;100997.22;5061421;28;20588;-69
2022/02/13 08:59:26;;;;;;;7.97;5.73;;;;;;;11.00;34.23;100982.69;5062257;28;20172;-69
2022/02/13 09:01:51;;;;;;;6.30;5.80;;;;;;;10.73;34.05;100968.47;5060940;28;20165;-69
2022/02/13 09:04:17;;;;;;;6.70;5.97;;;;;;;10.76;36.21;100968.50;5060953;28;20170;-68
2022/02/13 09:06:42;;;;;;;8.80;5.70;;;;;;;11.07;34.96;100960.16;5062874;28;20173;-66
2022/02/13 09:09:09;;;;;;;7.87;5.47;;;;;;;11.36;33.32;100957.84;5063227;28;20458;-68
2022/02/13 09:11:35;;;;;;;6.67;6.00;;;;;;;10.52;34.96;100963.81;5066477;28;20170;-68
2022/02/13 09:14:03;;;;;;;6.77;6.17;;;;;;;11.25;33.88;100957.72;5066879;28;20437;-66
2022/02/13 09:16:29;;;;;;;6.50;5.90;;;;;;;10.57;34.03;100962.16;5067041;28;20246;-66
2022/02/13 09:18:54;;;;;;;6.53;5.93;;;;;;;10.88;33.64;100953.84;5060959;28;20416;-70
2022/02/13 09:21:20;;;;;;;9.57;6.30;;;;;;;10.53;34.74;100965.59;5060934;28;20555;-67
2022/02/13 09:23:45;;;;;;;6.47;5.87;;;;;;;10.97;33.67;100953.94;5060517;28;20178;-67
2022/02/13 09:26:11;;;;;;;5.90;5.40;;;;;;;11.63;33.09;100944.16;5060567;28;20426;-69
2022/02/13 09:28:37;;;;;;;7.37;6.60;;;;;;;12.39;31.56;100939.50;5060494;28;20173;-69
2022/02/13 09:31:04;;;;;;;6.83;6.20;;;;;;;12.21;31.88;100939.41;5059925;28;20244;-69
2022/02/13 09:33:29;;;;;;;6.30;5.70;;;;;;;12.03;31.71;100932.31;5059815;28;20493;-70
2022/02/13 09:35:54;;;;;;;6.27;5.67;;;;;;;11.46;33.18;100943.16;5060397;28;20498;-69
2022/02/13 09:38:20;;;;;;;6.93;6.00;;;;;;;10.18;34.36;100944.22;5060176;28;20229;-68
2022/02/13 09:40:47;;;;;;;6.10;5.50;;;;;;;8.85;35.64;100949.72;5059890;28;20181;-69
2022/02/13 09:43:15;;;;;;;6.40;5.80;;;;;;;10.72;34.38;100943.22;5059815;28;20176;-67
2022/02/13 09:45:42;;;;;;;6.53;6.03;;;;;;;11.41;33.33;100942.25;5058819;28;20430;-69
2022/02/13 09:48:14;;;;;;;6.33;5.40;;;;;;;10.67;33.46;100950.13;5059593;28;20431;-69
2022/02/13 09:50:40;;;;;;;6.03;5.47;;;;;;;10.72;34.06;100944.97;5059351;28;20705;-70
2022/02/13 09:53:05;;;;;;;6.77;5.97;;;;;;;11.27;33.92;100936.88;5058786;28;20503;-69
2022/02/13 09:55:31;;;;;;;6.40;5.80;;;;;;;11.19;33.54;100938.53;5058822;28;20191;-69
2022/02/13 09:57:59;;;;;;;7.13;5.57;;;;;;;11.00;33.73;100935.75;5059550;28;20448;-69
2022/02/13 10:00:48;;;;;;;9.40;6.40;;;;;;;10.66;34.18;100952.72;5060471;28;20233;-70
2022/02/13 10:03:20;;;;;;;9.40;6.10;;;;;;;10.24;35.50;100946.91;5059464;28;20504;-69
2022/02/13 10:05:48;;;;;;;8.43;5.60;;;;;;;9.75;35.68;100963.50;5059197;28;20477;-69
2022/02/13 10:08:25;;;;;;;7.57;6.40;;;;;;;10.24;35.78;100945.19;5059161;28;20395;-70
2022/02/13 10:11:14;;;;;;;7.87;6.40;;;;;;;10.21;36.07;100952.94;5059114;28;20397;-71
2022/02/13 10:13:46;;;;;;;6.47;5.87;;;;;;;10.20;35.87;100951.22;5058898;28;20459;-68
2022/02/13 10:16:18;;;;;;;7.60;6.43;;;;;;;10.52;35.35;100955.16;5059043;28;20444;-69
2022/02/13 10:19:00;;;;;;;8.00;7.20;;;;;;;10.66;35.74;100940.53;5058912;28;20772;-70
2022/02/13 10:21:32;;;;;;;7.30;5.63;;;;;;;10.60;35.44;100940.47;5058947;28;20415;-69
2022/02/13 10:24:19;;;;;;;6.77;6.07;;;;;;;10.56;35.40;100949.13;5058671;28;20404;-69
2022/02/13 10:26:47;;;;;;;9.00;7.00;;;;;;;10.42;36.04;100936.78;5058834;28;20411;-68
2022/02/13 10:29:12;;;;;;;7.30;6.43;;;;;;;10.59;35.40;100937.00;5058874;28;20510;-68
2022/02/13 10:31:39;;;;;;;8.33;6.50;;;;;;;10.84;35.75;100944.22;5058836;28;20804;-69
2022/02/13 10:34:04;;;;;;;7.83;6.77;;;;;;;10.23;36.55;100953.00;5058869;28;20318;-70
2022/02/13 10:36:29;;;;;;;7.30;6.20;;;;;;;11.43;34.95;100943.13;5058936;28;20447;-69
2022/02/13 10:38:55;;;;;;;7.03;6.30;;;;;;;10.42;35.63;100951.53;5058708;28;20190;-68
2022/02/13 10:41:21;;;;;;;8.17;6.23;;;;;;;10.03;36.93;100947.47;5059175;28;20253;-67
2022/02/13 10:43:56;;;;;;;8.50;6.37;;;;;;;10.09;37.42;100932.81;5058289;28;20165;-68
2022/02/13 10:46:23;;;;;;;8.77;6.10;;;;;;;10.37;36.70;100937.56;5058578;28;20465;-68
2022/02/13 10:48:48;;;;;;;6.80;6.10;;;;;;;10.18;37.38;100937.28;5057651;28;20466;-69
2022/02/13 10:51:14;;;;;;;8.27;6.37;;;;;;;9.95;36.94;100929.13;5058316;28;20446;-69
2022/02/13 10:53:40;;;;;;;7.23;6.37;;;;;;;9.55;37.80;100925.88;5059396;28;20315;-69
2022/02/13 10:56:07;;;;;;;6.87;5.83;;;;;;;10.74;36.84;100912.84;5058566;28;20224;-68
2022/02/13 10:58:33;;;;;;;8.63;6.80;;;;;;;10.57;36.56;100916.97;5058128;28;20477;-69
2022/02/13 11:01:00;;;;;;;7.37;6.67;;;;;;;9.35;38.51;100910.81;5058487;28;20173;-68
2022/02/13 11:03:25;;;;;;;7.20;6.50;;;;;;;9.41;38.45;100926.50;5058030;28;20181;-69
2022/02/13 11:05:52;;;;;;;8.23;6.93;;;;;;;9.88;37.68;100907.31;5058198;28;20387;-69
2022/02/13 11:08:18;;;;;;;7.50;6.80;;;;;;;10.43;37.45;100907.25;5057585;28;20170;-69
2022/02/13 11:10:48;;;;;;;10.30;9.23;;;;;;;11.04;36.65;100887.06;5057938;28;20399;-67
2022/02/13 11:13:14;;;;;;;7.50;6.90;;;;;;;11.54;35.82;100896.22;5057710;28;20441;-67
2022/02/13 11:15:42;;;;;;;7.60;6.70;;;;;;;10.66;36.01;100904.03;5058398;28;20683;-67
2022/02/13 11:18:08;;;;;;;7.47;6.47;;;;;;;10.09;37.49;100893.75;5057912;28;20417;-67
2022/02/13 11:20:35;;;;;;;7.33;6.63;;;;;;;11.12;36.07;100878.47;5057773;28;20439;-67
2022/02/13 11:23:23;;;;;;;8.87;6.70;;;;;;;11.64;35.34;100866.72;5057670;28;20404;-67
2022/02/13 11:25:50;;;;;;;8.13;7.07;;;;;;;11.35;35.68;100866.47;5057904;28;20837;-68